Time;durP1;ratioP1;P1;durP2;ratioP2;P2;SDS_P1;SDS_P2;PMS_P1;PMS_P2;Temp;Humidity;BMP_temperature;BMP_pressure;BME280_temperature;BME280_humidity;BME280_pressure;Samples;Min_cycle;Max_cycle;Signal;HPM_P1;HPM_P2
2023/12/29 00:00:30;;;;;;;;;;;;;;;11.98;50.30;100738.35;106284;1253;67312;-89
2023/12/29 00:03:10;;;;;;;;;;;;;;;11.95;50.25;100734.96;106295;1256;72446;-83
2023/12/29 00:05:50;;;;;;;;;;;;;;;11.72;50.72;100724.59;106677;1258;60913;-91
2023/12/29 00:08:24;;;;;;;;;;;;;;;11.66;50.99;100732.71;106521;1256;60407;-89
2023/12/29 00:10:58;;;;;;;;;;;;;;;11.60;51.21;100736.34;106501;1256;73809;-83
2023/12/29 00:13:38;;;;;;;;;;;;;;;11.55;51.44;100738.61;106201;1254;67152;-83
2023/12/29 00:16:18;;;;;;;;;;;;;;;11.45;51.57;100736.02;106138;1259;75428;-90
2023/12/29 00:18:52;;;;;;;;;;;;;;;11.38;51.98;100737.17;106271;1256;60906;-90
2023/12/29 00:21:26;;;;;;;;;;;;;;;11.37;51.94;100738.77;106459;1253;60566;-83
2023/12/29 00:24:00;;;;;;;;;;;;;;;10.96;52.79;100742.28;106791;1253;72553;-89
2023/12/29 00:26:34;;;;;;;;;;;;;;;11.09;53.07;100739.80;106469;1258;67095;-89
2023/12/29 00:29:08;;;;;;;;;;;;;;;11.52;51.81;100740.41;106328;1256;72616;-82
2023/12/29 00:31:45;;;;;;;;;;;;;;;11.51;51.97;100739.65;106215;1260;61509;-82
2023/12/29 00:34:26;;;;;;;;;;;;;;;11.41;52.04;100736.35;106190;1256;60583;-83
2023/12/29 00:37:08;;;;;;;;;;;;;;;11.40;52.31;100732.96;106351;1256;76450;-90
2023/12/29 00:39:48;;;;;;;;;;;;;;;11.43;51.98;100734.85;107151;1254;68442;-84
2023/12/29 00:42:30;;;;;;;;;;;;;;;11.46;52.18;100728.77;106264;1255;71389;-89
2023/12/29 00:45:12;;;;;;;;;;;;;;;11.46;52.07;100725.87;106027;1256;60324;-83
2023/12/29 00:47:52;;;;;;;;;;;;;;;11.53;51.93;100730.61;106296;1257;60368;-83
2023/12/29 00:50:33;;;;;;;;;;;;;;;11.49;52.20;100726.63;106215;1253;72547;-91
2023/12/29 00:53:12;;;;;;;;;;;;;;;11.57;51.99;100725.02;106450;1253;67249;-90
2023/12/29 00:55:53;;;;;;;;;;;;;;;11.55;52.03;100719.83;106857;1253;72707;-90
2023/12/29 00:58:33;;;;;;;;;;;;;;;11.45;52.30;100716.36;106212;1255;60436;-90
2023/12/29 01:01:13;;;;;;;;;;;;;;;11.09;53.36;100716.28;106423;1255;60371;-89
2023/12/29 01:03:54;;;;;;;;;;;;;;;11.55;52.43;100725.13;106129;1261;72818;-83
2023/12/29 01:06:34;;;;;;;;;;;;;;;11.67;51.97;100719.63;106349;1253;68405;-83
2023/12/29 01:09:14;;;;;;;;;;;;;;;11.60;52.18;100718.22;106305;1253;71775;-83
2023/12/29 01:11:55;;;;;;;;;;;;;;;11.75;51.43;100719.30;106578;1254;60514;-83
2023/12/29 01:14:35;;;;;;;;;;;;;;;11.73;51.76;100716.46;106452;1256;59144;-89
2023/12/29 01:17:15;;;;;;;;;;;;;;;11.76;51.60;100718.09;106231;1253;72677;-83
2023/12/29 01:19:55;;;;;;;;;;;;;;;11.77;51.36;100718.60;106400;1253;69308;-83
2023/12/29 01:22:35;;;;;;;;;;;;;;;11.77;51.37;100718.54;106108;1253;72048;-83
2023/12/29 01:25:15;;;;;;;;;;;;;;;11.75;51.40;100720.99;106207;1253;60580;-83
2023/12/29 01:27:55;;;;;;;;;;;;;;;11.61;51.96;100730.20;106142;1259;60342;-89
2023/12/29 01:30:35;;;;;;;;;;;;;;;11.75;51.47;100721.45;107082;1256;74444;-88
2023/12/29 01:33:19;;;;;;;;;;;;;;;11.79;51.40;100717.16;106089;1256;66973;-90
2023/12/29 01:35:59;;;;;;;;;;;;;;;11.88;51.30;100718.12;106202;1260;70245;-83
2023/12/29 01:38:53;;;;;;;;;;;;;;;11.85;51.31;100703.98;106258;1261;60541;-83
2023/12/29 01:41:35;;;;;;;;;;;;;;;11.84;51.34;100695.90;106117;1257;60543;-87
2023/12/29 01:44:25;;;;;;;;;;;;;;;11.85;51.21;100692.33;106136;1260;73782;-90
2023/12/29 01:47:05;;;;;;;;;;;;;;;11.91;51.11;100695.32;106231;1255;67978;-89
2023/12/29 01:49:46;;;;;;;;;;;;;;;11.99;50.93;100695.50;106687;1253;71423;-89
2023/12/29 01:52:26;;;;;;;;;;;;;;;11.80;51.27;100691.15;106362;1256;60502;-90
2023/12/29 01:55:00;;;;;;;;;;;;;;;11.85;51.48;100691.92;106283;1255;60461;-83
2023/12/29 01:57:35;;;;;;;;;;;;;;;11.80;52.03;100692.80;105921;1253;222878;-90
2023/12/29 02:00:10;;;;;;;;;;;;;;;11.76;52.56;100687.77;106189;1259;68358;-83
2023/12/29 02:02:47;;;;;;;;;;;;;;;12.01;52.10;100685.41;106755;1258;72547;-91
2023/12/29 02:05:21;;;;;;;;;;;;;;;12.16;51.86;100694.14;106215;1256;60590;-83
2023/12/29 02:07:55;;;;;;;;;;;;;;;12.15;52.07;100691.34;106344;1255;60855;-90
2023/12/29 02:10:29;;;;;;;;;;;;;;;12.30;52.02;100687.36;106278;1255;73843;-89
2023/12/29 02:13:04;;;;;;;;;;;;;;;12.40;51.52;100683.27;106307;1256;68362;-83
2023/12/29 02:15:37;;;;;;;;;;;;;;;12.40;51.42;100684.11;106457;1255;73055;-89
2023/12/29 02:18:14;;;;;;;;;;;;;;;12.42;51.14;100681.14;106251;1255;60573;-83
2023/12/29 02:20:48;;;;;;;;;;;;;;;12.32;51.34;100685.31;106371;1257;60346;-89
2023/12/29 02:23:23;;;;;;;;;;;;;;;12.16;51.62;100689.37;107019;1260;72765;-90
2023/12/29 02:25:58;;;;;;;;;;;;;;;12.10;51.78;100684.86;106217;1258;68423;-83
2023/12/29 02:28:32;;;;;;;;;;;;;;;12.01;52.01;100685.25;106347;1258;73355;-90
2023/12/29 02:31:08;;;;;;;;;;;;;;;12.15;51.65;100684.46;106284;1258;60875;-88
2023/12/29 02:33:42;;;;;;;;;;;;;;;12.17;51.53;100687.52;106322;1258;61152;-89
2023/12/29 02:36:16;;;;;;;;;;;;;;;12.15;51.54;100685.66;106530;1256;72873;-90
2023/12/29 02:38:51;;;;;;;;;;;;;;;12.17;51.45;100683.56;106501;1258;67272;-83
2023/12/29 02:41:25;;;;;;;;;;;;;;;12.16;51.28;100677.05;106080;1259;72454;-83
2023/12/29 02:43:59;;;;;;;;;;;;;;;12.16;51.29;100677.16;106294;1254;60451;-83
2023/12/29 02:46:34;;;;;;;;;;;;;;;12.16;51.42;100678.36;106249;1258;60371;-83
2023/12/29 02:49:12;;;;;;;;;;;;;;;12.10;51.57;100678.18;106095;1258;75972;-82
2023/12/29 02:51:49;;;;;;;;;;;;;;;12.06;51.60;100681.05;106271;1253;68656;-83
2023/12/29 02:54:23;;;;;;;;;;;;;;;12.21;51.09;100679.42;106595;1258;71473;-90
2023/12/29 02:56:57;;;;;;;;;;;;;;;12.21;51.16;100683.59;106642;1256;60661;-90
2023/12/29 02:59:32;;;;;;;;;;;;;;;12.18;51.24;100684.70;106387;1256;60592;-83
2023/12/29 03:02:06;;;;;;;;;;;;;;;12.19;51.29;100685.63;106303;1253;74317;-90
2023/12/29 03:04:39;;;;;;;;;;;;;;;12.27;51.05;100689.69;106570;1259;67498;-83
2023/12/29 03:07:13;;;;;;;;;;;;;;;12.32;50.92;100692.43;106128;1258;71412;-88
2023/12/29 03:09:48;;;;;;;;;;;;;;;12.40;50.87;100696.23;106288;1259;60544;-88
2023/12/29 03:12:22;;;;;;;;;;;;;;;12.57;50.42;100689.17;106582;1254;60436;-89
2023/12/29 03:14:56;;;;;;;;;;;;;;;12.55;50.23;100690.30;106455;1257;75400;-83
2023/12/29 03:17:31;;;;;;;;;;;;;;;12.67;50.01;100685.48;106226;1254;67244;-89
2023/12/29 03:20:06;;;;;;;;;;;;;;;12.67;50.06;100689.04;106299;1259;72742;-83
2023/12/29 03:22:41;;;;;;;;;;;;;;;12.76;49.79;100694.44;106296;1258;60477;-90
2023/12/29 03:25:15;;;;;;;;;;;;;;;12.74;49.74;100689.48;106318;1258;60348;-83
2023/12/29 03:27:49;;;;;;;;;;;;;;;12.72;49.82;100691.14;106323;1256;72571;-83
2023/12/29 03:30:23;;;;;;;;;;;;;;;12.57;50.00;100682.99;106450;1257;68583;-88
2023/12/29 03:32:57;;;;;;;;;;;;;;;12.46;50.40;100682.98;106345;1258;72948;-90
2023/12/29 03:35:31;;;;;;;;;;;;;;;12.18;51.05;100693.80;106360;1259;60908;-83
2023/12/29 03:38:05;;;;;;;;;;;;;;;12.10;51.41;100690.73;107189;1255;60309;-89
2023/12/29 03:40:34;;;;;;;;;;;;;;;12.18;51.23;100686.67;106586;1256;73849;-83
2023/12/29 03:43:07;;;;;;;;;;;;;;;12.30;51.07;100683.36;106243;1260;67458;-83
2023/12/29 03:45:42;;;;;;;;;;;;;;;12.52;50.58;100681.65;106133;1256;75269;-83
2023/12/29 03:48:18;;;;;;;;;;;;;;;12.55;50.45;100680.81;106184;1260;61218;-88
2023/12/29 03:50:53;;;;;;;;;;;;;;;12.57;50.31;100687.42;106374;1257;60304;-86
2023/12/29 03:53:31;;;;;;;;;;;;;;;12.58;50.33;100681.77;106416;1256;73428;-83
2023/12/29 03:56:08;;;;;;;;;;;;;;;12.49;50.61;100674.17;106468;1262;67290;-84
2023/12/29 03:58:43;;;;;;;;;;;;;;;12.41;50.88;100670.95;106153;1254;74711;-89
2023/12/29 04:01:17;;;;;;;;;;;;;;;12.34;51.11;100674.56;106313;1256;60448;-89
2023/12/29 04:03:53;;;;;;;;;;;;;;;12.37;51.10;100679.85;106243;1254;60451;-83
2023/12/29 04:06:26;;;;;;;;;;;;;;;12.37;51.05;100681.22;106394;1256;73872;-90
2023/12/29 04:09:00;;;;;;;;;;;;;;;12.33;51.29;100676.34;106284;1259;68322;-83
2023/12/29 04:11:35;;;;;;;;;;;;;;;12.22;51.53;100670.65;106508;1253;71461;-90
2023/12/29 04:14:12;;;;;;;;;;;;;;;12.20;51.78;100674.27;106301;1253;60419;-83
2023/12/29 04:16:46;;;;;;;;;;;;;;;12.37;51.37;100672.08;106531;1253;60428;-83
2023/12/29 04:19:20;;;;;;;;;;;;;;;12.26;51.61;100671.82;106452;1260;72605;-89
2023/12/29 04:21:54;;;;;;;;;;;;;;;12.15;52.05;100678.04;106239;1256;68468;-82
2023/12/29 04:24:30;;;;;;;;;;;;;;;12.25;51.90;100672.11;106486;1257;73755;-83
2023/12/29 04:27:04;;;;;;;;;;;;;;;12.25;52.07;100675.94;106334;1253;60328;-89
2023/12/29 04:29:32;;;;;;;;;;;;;;;12.22;52.20;100677.02;106754;1254;60302;-86
2023/12/29 12:33:36;;;;;;;;;;;;;;;16.34;47.03;100570.91;106412;1253;75281;-80
2023/12/29 12:36:06;;;;;;;;;;;;;;;16.40;46.99;100569.55;106704;1253;66305;-80
2023/12/29 12:38:50;;;;;;;;;;;;;;;16.38;46.95;100570.45;106585;1254;71191;-80
2023/12/29 12:41:24;;;;;;;;;;;;;;;16.31;46.94;100568.36;106578;1253;60458;-85
2023/12/29 12:44:11;;;;;;;;;;;;;;;16.34;46.83;100574.97;106503;1253;60980;-80
2023/12/29 12:46:50;;;;;;;;;;;;;;;16.25;46.99;100580.89;106293;1254;73255;-80
2023/12/29 12:49:18;;;;;;;;;;;;;;;16.31;47.02;100578.35;107056;1252;69826;-84
2023/12/29 12:51:53;;;;;;;;;;;;;;;16.37;46.89;100574.45;106192;1256;73862;-79
2023/12/29 12:54:30;;;;;;;;;;;;;;;16.38;46.86;100567.05;106564;1253;62721;-79
2023/12/29 12:57:03;;;;;;;;;;;;;;;16.36;46.92;100559.92;106348;1253;60587;-79
2023/12/29 12:59:34;;;;;;;;;;;;;;;16.37;47.04;100562.77;106292;1259;75416;-79
2023/12/29 13:02:10;;;;;;;;;;;;;;;16.36;47.09;100556.45;107023;1253;71219;-84
2023/12/29 13:04:45;;;;;;;;;;;;;;;16.38;46.84;100553.71;106568;1255;71472;-79
2023/12/29 13:07:17;;;;;;;;;;;;;;;16.30;46.83;100559.96;106654;1253;62311;-79
2023/12/29 13:09:56;;;;;;;;;;;;;;;16.18;47.13;100559.39;106651;1257;60323;-80
2023/12/29 13:12:33;;;;;;;;;;;;;;;16.21;47.06;100557.95;106876;1255;75397;-83
2023/12/29 13:15:09;;;;;;;;;;;;;;;16.27;47.01;100555.73;106504;1253;69919;-82
2023/12/29 13:17:37;;;;;;;;;;;;;;;16.31;46.87;100553.15;106526;1254;71466;-83
2023/12/29 13:20:12;;;;;;;;;;;;;;;16.23;46.89;100554.91;106576;1258;60534;-78
2023/12/29 13:22:48;;;;;;;;;;;;;;;16.17;46.92;100556.56;105959;1254;60959;-83
2023/12/29 13:25:25;;;;;;;;;;;;;;;16.10;46.99;100550.84;105965;1253;73543;-82
2023/12/29 13:27:55;;;;;;;;;;;;;;;15.91;47.42;100549.31;106206;1256;70168;-79
2023/12/29 13:30:30;;;;;;;;;;;;;;;15.76;47.67;100557.71;106133;1254;73089;-79
2023/12/29 13:33:21;;;;;;;;;;;;;;;15.50;48.24;100553.38;106607;1253;60731;-82
2023/12/29 13:35:57;;;;;;;;;;;;;;;15.38;48.57;100553.98;106915;1254;61244;-80
2023/12/29 13:38:37;;;;;;;;;;;;;;;15.29;48.77;100561.22;106321;1253;72920;-83
2023/12/29 13:41:13;;;;;;;;;;;;;;;15.26;48.83;100568.27;106711;1254;67093;-84
2023/12/29 13:43:48;;;;;;;;;;;;;;;15.17;49.00;100571.54;109296;1253;72310;-80
2023/12/29 13:46:22;;;;;;;;;;;;;;;15.10;49.21;100568.45;107350;1253;61755;-83
2023/12/29 13:48:53;;;;;;;;;;;;;;;15.09;49.22;100565.00;106681;1253;61446;-82
2023/12/29 13:51:29;;;;;;;;;;;;;;;15.11;49.30;100569.91;106927;1257;74724;-80
2023/12/29 13:54:06;;;;;;;;;;;;;;;15.11;49.21;100580.85;106719;1253;70637;-79
2023/12/29 13:56:53;;;;;;;;;;;;;;;14.92;49.65;100582.55;106262;1253;195886;-82
2023/12/29 13:59:33;;;;;;;;;;;;;;;14.84;49.87;100568.41;106251;1258;60541;-79
2023/12/29 14:02:26;;;;;;;;;;;;;;;14.69;50.29;100564.08;106254;1254;62643;-82
2023/12/29 14:05:16;;;;;;;;;;;;;;;14.74;50.34;100559.52;106344;1254;75781;-81
2023/12/29 14:08:05;;;;;;;;;;;;;;;14.56;50.87;100559.09;106413;1254;69849;-79
2023/12/29 14:10:40;;;;;;;;;;;;;;;14.47;51.18;100561.65;106274;1255;71455;-79
2023/12/29 14:13:09;;;;;;;;;;;;;;;14.48;51.34;100569.37;106379;1260;60494;-82
2023/12/29 14:15:47;;;;;;;;;;;;;;;14.39;51.63;100572.00;106142;1254;61236;-79
2023/12/29 14:18:22;;;;;;;;;;;;;;;14.30;52.02;100567.72;107220;1254;72588;-82
2023/12/29 14:20:57;;;;;;;;;;;;;;;14.41;51.88;100569.19;106347;1254;71237;-82
2023/12/29 14:23:27;;;;;;;;;;;;;;;14.42;51.89;100569.48;106191;1254;72683;-83
2023/12/29 14:26:06;;;;;;;;;;;;;;;14.32;52.22;100571.91;106249;1256;60883;-84
2023/12/29 14:28:41;;;;;;;;;;;;;;;14.20;52.67;100574.83;106356;1253;60375;-80
2023/12/29 14:31:15;;;;;;;;;;;;;;;14.26;52.49;100573.17;106255;1254;76019;-83
2023/12/29 14:33:44;;;;;;;;;;;;;;;14.31;52.57;100574.16;106337;1257;69935;-79
2023/12/29 14:36:20;;;;;;;;;;;;;;;14.37;52.39;100567.77;106349;1254;73665;-82
2023/12/29 14:38:56;;;;;;;;;;;;;;;14.32;52.35;100564.59;106193;1261;60521;-79
2023/12/29 14:41:30;;;;;;;;;;;;;;;14.10;52.84;100569.81;106485;1256;60432;-83
2023/12/29 14:44:00;;;;;;;;;;;;;;;14.03;53.15;100575.48;106247;1254;73866;-80
2023/12/29 14:46:36;;;;;;;;;;;;;;;13.99;53.24;100571.97;106127;1254;70531;-84
2023/12/29 14:49:12;;;;;;;;;;;;;;;13.87;53.69;100578.52;106288;1255;72647;-79
2023/12/29 14:51:48;;;;;;;;;;;;;;;13.84;53.76;100571.05;106240;1253;60459;-82
2023/12/29 14:54:25;;;;;;;;;;;;;;;13.91;53.41;100569.46;106899;1254;62480;-80
2023/12/29 14:57:02;;;;;;;;;;;;;;;13.90;53.23;100562.89;106349;1257;73847;-79
2023/12/29 14:59:47;;;;;;;;;;;;;;;13.62;53.87;100562.75;106390;1259;68925;-79
2023/12/29 15:02:24;;;;;;;;;;;;;;;13.56;54.16;100564.98;106156;1254;74901;-79
2023/12/29 15:05:01;;;;;;;;;;;;;;;13.41;54.73;100572.22;106370;1256;60732;-82
2023/12/29 15:07:36;;;;;;;;;;;;;;;13.41;55.00;100576.99;106245;1255;60284;-79
2023/12/29 15:10:12;;;;;;;;;;;;;;;13.45;54.86;100581.55;105749;1254;73813;-80
2023/12/29 15:12:48;;;;;;;;;;;;;;;13.19;55.64;100582.13;105931;1254;70540;-82
2023/12/29 15:15:24;;;;;;;;;;;;;;;13.16;55.86;100583.87;106089;1258;74007;-81
2023/12/29 15:18:00;;;;;;;;;;;;;;;13.14;56.28;100586.15;105953;1257;62000;-81
2023/12/29 15:20:36;;;;;;;;;;;;;;;13.18;56.32;100587.20;106310;1258;61122;-83
2023/12/29 15:23:11;;;;;;;;;;;;;;;13.17;56.39;100587.26;106088;1254;73856;-82
2023/12/29 15:25:47;;;;;;;;;;;;;;;13.20;56.30;100584.48;105915;1256;67164;-79
2023/12/29 15:28:22;;;;;;;;;;;;;;;13.26;56.04;100585.19;105993;1256;74763;-80
2023/12/29 15:30:58;;;;;;;;;;;;;;;13.30;55.91;100582.17;106276;1257;63276;-82
2023/12/29 15:33:34;;;;;;;;;;;;;;;13.24;56.03;100586.30;106240;1254;61258;-82
2023/12/29 15:36:17;;;;;;;;;;;;;;;13.14;56.56;100587.84;106370;1252;76686;-79
2023/12/29 15:38:52;;;;;;;;;;;;;;;13.16;56.64;100589.20;106469;1254;67612;-82
2023/12/29 15:41:28;;;;;;;;;;;;;;;13.17;56.69;100588.96;106425;1256;71452;-83
2023/12/29 15:44:06;;;;;;;;;;;;;;;13.11;56.99;100595.79;106393;1253;62356;-83
2023/12/29 15:46:42;;;;;;;;;;;;;;;12.80;58.10;100601.77;106079;1257;60435;-78
2023/12/29 15:49:17;;;;;;;;;;;;;;;12.77;58.31;100601.92;106103;1255;72625;-79
2023/12/29 15:51:53;;;;;;;;;;;;;;;12.77;58.39;100603.23;106069;1253;69868;-79
2023/12/29 15:54:28;;;;;;;;;;;;;;;12.79;58.63;100603.33;106861;1253;74552;-80
2023/12/29 15:57:07;;;;;;;;;;;;;;;12.72;58.87;100602.09;106877;1253;60471;-82
2023/12/29 15:59:44;;;;;;;;;;;;;;;12.63;59.19;100592.80;106305;1253;62465;-79
2023/12/29 16:02:20;;;;;;;;;;;;;;;12.62;59.32;100591.38;106283;1253;73843;-83
2023/12/29 16:04:55;;;;;;;;;;;;;;;12.50;60.01;100594.19;106016;1253;69333;-81
2023/12/29 16:07:31;;;;;;;;;;;;;;;12.45;60.27;100594.88;105772;1260;73715;-81
2023/12/29 16:10:08;;;;;;;;;;;;;;;12.39;60.46;100601.75;105934;1253;60605;-81
2023/12/29 16:12:44;;;;;;;;;;;;;;;12.47;60.10;100597.34;105924;1256;60585;-79
2023/12/29 16:15:20;;;;;;;;;;;;;;;12.56;59.59;100602.91;106073;1259;76157;-82
2023/12/29 16:17:54;;;;;;;;;;;;;;;12.46;60.01;100608.14;105907;1257;69515;-82
2023/12/29 16:20:28;;;;;;;;;;;;;;;12.49;60.21;100612.45;106048;1256;73815;-82
2023/12/29 16:23:03;;;;;;;;;;;;;;;12.47;60.21;100608.09;105792;1259;60921;-82
2023/12/29 16:25:37;;;;;;;;;;;;;;;12.48;60.44;100608.89;105956;1258;60443;-79
2023/12/29 16:28:11;;;;;;;;;;;;;;;12.44;60.24;100602.02;106030;1253;74858;-81
